sensor_id;sensor_type;location;lat;lon;timestamp;temperature;humidity
42135;DHT22;28312;43.460;11.810;2023-04-01T00:01:27;13.00;69.30
42135;DHT22;28312;43.460;11.810;2023-04-01T00:05:30;12.90;69.30
42135;DHT22;28312;43.460;11.810;2023-04-01T00:09:34;12.80;69.20
42135;DHT22;28312;43.460;11.810;2023-04-01T00:13:38;12.70;69.10
42135;DHT22;28312;43.460;11.810;2023-04-01T00:17:41;12.60;69.10
42135;DHT22;28312;43.460;11.810;2023-04-01T00:21:45;12.40;69.00
42135;DHT22;28312;43.460;11.810;2023-04-01T00:25:49;12.20;69.10
42135;DHT22;28312;43.460;11.810;2023-04-01T00:29:54;12.20;69.10
42135;DHT22;28312;43.460;11.810;2023-04-01T00:34:01;12.10;69.10
42135;DHT22;28312;43.460;11.810;2023-04-01T00:38:05;12.00;69.00
42135;DHT22;28312;43.460;11.810;2023-04-01T00:42:10;11.80;68.80
42135;DHT22;28312;43.460;11.810;2023-04-01T00:46:14;11.70;69.00
42135;DHT22;28312;43.460;11.810;2023-04-01T00:50:18;11.60;68.90
42135;DHT22;28312;43.460;11.810;2023-04-01T00:54:24;11.50;68.90
42135;DHT22;28312;43.460;11.810;2023-04-01T00:58:29;11.50;68.90
42135;DHT22;28312;43.460;11.810;2023-04-01T01:02:34;11.40;68.90
42135;DHT22;28312;43.460;11.810;2023-04-01T01:11:11;11.20;68.90
42135;DHT22;28312;43.460;11.810;2023-04-01T01:15:20;11.20;68.80
42135;DHT22;28312;43.460;11.810;2023-04-01T01:37:14;11.00;69.00
42135;DHT22;28312;43.460;11.810;2023-04-01T01:41:20;11.00;68.90
42135;DHT22;28312;43.460;11.810;2023-04-01T01:45:27;11.10;68.80
42135;DHT22;28312;43.460;11.810;2023-04-01T01:49:32;11.10;68.80
42135;DHT22;28312;43.460;11.810;2023-04-01T01:53:37;11.10;68.60
42135;DHT22;28312;43.460;11.810;2023-04-01T01:57:42;11.00;68.70
42135;DHT22;28312;43.460;11.810;2023-04-01T02:01:54;11.00;68.60
42135;DHT22;28312;43.460;11.810;2023-04-01T02:06:01;11.00;68.70
42135;DHT22;28312;43.460;11.810;2023-04-01T02:10:06;11.00;68.70
42135;DHT22;28312;43.460;11.810;2023-04-01T02:14:31;11.00;68.60
42135;DHT22;28312;43.460;11.810;2023-04-01T02:18:38;10.90;68.70
42135;DHT22;28312;43.460;11.810;2023-04-01T02:22:49;10.90;68.80
42135;DHT22;28312;43.460;11.810;2023-04-01T02:26:53;10.90;68.80
42135;DHT22;28312;43.460;11.810;2023-04-01T02:30:58;10.90;68.70
42135;DHT22;28312;43.460;11.810;2023-04-01T02:35:08;10.90;68.70
42135;DHT22;28312;43.460;11.810;2023-04-01T02:39:13;10.90;68.80
42135;DHT22;28312;43.460;11.810;2023-04-01T02:43:17;10.90;68.70
42135;DHT22;28312;43.460;11.810;2023-04-01T02:47:21;11.00;68.70
42135;DHT22;28312;43.460;11.810;2023-04-01T02:51:25;11.00;68.70
42135;DHT22;28312;43.460;11.810;2023-04-01T02:55:29;11.00;68.60
42135;DHT22;28312;43.460;11.810;2023-04-01T02:59:34;11.10;68.60
42135;DHT22;28312;43.460;11.810;2023-04-01T03:03:38;11.00;68.50
42135;DHT22;28312;43.460;11.810;2023-04-01T03:07:42;11.00;68.60
42135;DHT22;28312;43.460;11.810;2023-04-01T03:11:45;11.10;68.60
42135;DHT22;28312;43.460;11.810;2023-04-01T03:15:49;11.00;68.70
42135;DHT22;28312;43.460;11.810;2023-04-01T03:19:52;11.00;68.70
42135;DHT22;28312;43.460;11.810;2023-04-01T03:23:56;11.00;68.70
42135;DHT22;28312;43.460;11.810;2023-04-01T03:27:59;10.90;68.70
42135;DHT22;28312;43.460;11.810;2023-04-01T03:32:03;10.90;68.70
42135;DHT22;28312;43.460;11.810;2023-04-01T03:36:07;10.80;68.40
42135;DHT22;28312;43.460;11.810;2023-04-01T03:40:11;10.70;68.40
42135;DHT22;28312;43.460;11.810;2023-04-01T03:44:15;10.60;68.40
42135;DHT22;28312;43.460;11.810;2023-04-01T03:48:21;10.50;68.40
42135;DHT22;28312;43.460;11.810;2023-04-01T03:52:25;10.40;68.20
42135;DHT22;28312;43.460;11.810;2023-04-01T03:56:28;10.30;68.30
42135;DHT22;28312;43.460;11.810;2023-04-01T04:00:32;10.10;68.50
42135;DHT22;28312;43.460;11.810;2023-04-01T04:04:37;10.10;68.50
42135;DHT22;28312;43.460;11.810;2023-04-01T04:08:41;10.20;68.40
42135;DHT22;28312;43.460;11.810;2023-04-01T04:12:44;10.10;68.30
42135;DHT22;28312;43.460;11.810;2023-04-01T04:16:49;10.10;68.30
42135;DHT22;28312;43.460;11.810;2023-04-01T04:20:55;10.00;68.50
42135;DHT22;28312;43.460;11.810;2023-04-01T04:25:00;10.00;68.70
42135;DHT22;28312;43.460;11.810;2023-04-01T04:29:04;10.00;69.00
42135;DHT22;28312;43.460;11.810;2023-04-01T04:33:08;10.10;69.30
42135;DHT22;28312;43.460;11.810;2023-04-01T04:37:11;10.20;69.60
42135;DHT22;28312;43.460;11.810;2023-04-01T04:41:17;10.20;69.70
42135;DHT22;28312;43.460;11.810;2023-04-01T04:45:26;10.30;69.70
42135;DHT22;28312;43.460;11.810;2023-04-01T04:49:32;10.50;69.70
42135;DHT22;28312;43.460;11.810;2023-04-01T04:53:41;10.70;69.70
42135;DHT22;28312;43.460;11.810;2023-04-01T04:57:44;10.80;69.70
42135;DHT22;28312;43.460;11.810;2023-04-01T05:01:48;11.00;69.60
42135;DHT22;28312;43.460;11.810;2023-04-01T05:05:53;11.20;69.50
42135;DHT22;28312;43.460;11.810;2023-04-01T05:09:57;11.30;69.40
42135;DHT22;28312;43.460;11.810;2023-04-01T05:14:02;11.50;69.30
42135;DHT22;28312;43.460;11.810;2023-04-01T05:18:07;11.60;69.20
42135;DHT22;28312;43.460;11.810;2023-04-01T05:22:12;11.70;69.10
42135;DHT22;28312;43.460;11.810;2023-04-01T05:26:16;11.80;69.00
42135;DHT22;28312;43.460;11.810;2023-04-01T05:30:20;11.90;69.00
42135;DHT22;28312;43.460;11.810;2023-04-01T05:34:37;12.00;69.00
42135;DHT22;28312;43.460;11.810;2023-04-01T05:38:40;12.20;68.80
42135;DHT22;28312;43.460;11.810;2023-04-01T05:42:47;12.20;68.80
42135;DHT22;28312;43.460;11.810;2023-04-01T05:46:52;12.20;68.70
42135;DHT22;28312;43.460;11.810;2023-04-01T05:50:58;12.20;68.50
42135;DHT22;28312;43.460;11.810;2023-04-01T05:55:05;12.20;68.50
42135;DHT22;28312;43.460;11.810;2023-04-01T05:59:11;12.10;68.60
42135;DHT22;28312;43.460;11.810;2023-04-01T06:03:16;12.10;68.60
42135;DHT22;28312;43.460;11.810;2023-04-01T06:07:21;12.10;68.60
42135;DHT22;28312;43.460;11.810;2023-04-01T06:11:28;12.20;68.80
42135;DHT22;28312;43.460;11.810;2023-04-01T06:15:59;12.20;69.40
42135;DHT22;28312;43.460;11.810;2023-04-01T06:20:42;12.60;70.10
42135;DHT22;28312;43.460;11.810;2023-04-01T06:34:37;13.80;70.00
42135;DHT22;28312;43.460;11.810;2023-04-01T06:57:55;16.10;68.20
42135;DHT22;28312;43.460;11.810;2023-04-01T07:02:19;15.80;68.30
42135;DHT22;28312;43.460;11.810;2023-04-01T07:11:09;15.30;68.30
42135;DHT22;28312;43.460;11.810;2023-04-01T07:15:42;15.30;68.50
42135;DHT22;28312;43.460;11.810;2023-04-01T07:20:03;15.40;68.80
42135;DHT22;28312;43.460;11.810;2023-04-01T07:24:32;15.60;68.40
42135;DHT22;28312;43.460;11.810;2023-04-01T07:28:42;15.70;68.00
42135;DHT22;28312;43.460;11.810;2023-04-01T07:42:09;16.10;68.50
42135;DHT22;28312;43.460;11.810;2023-04-01T07:51:00;16.60;68.30
42135;DHT22;28312;43.460;11.810;2023-04-01T07:55:20;17.30;68.10
42135;DHT22;28312;43.460;11.810;2023-04-01T07:59:54;18.00;68.10
42135;DHT22;28312;43.460;11.810;2023-04-01T08:09:03;18.60;66.80
42135;DHT22;28312;43.460;11.810;2023-04-01T08:13:18;19.10;67.00
42135;DHT22;28312;43.460;11.810;2023-04-01T08:18:17;19.60;66.50
42135;DHT22;28312;43.460;11.810;2023-04-01T08:22:30;19.60;65.70
42135;DHT22;28312;43.460;11.810;2023-04-01T08:26:42;19.20;65.40
42135;DHT22;28312;43.460;11.810;2023-04-01T08:40:01;17.70;63.40
42135;DHT22;28312;43.460;11.810;2023-04-01T08:52:58;18.60;65.00
42135;DHT22;28312;43.460;11.810;2023-04-01T09:43:44;19.10;63.00
42135;DHT22;28312;43.460;11.810;2023-04-01T09:48:05;20.30;61.50
42135;DHT22;28312;43.460;11.810;2023-04-01T09:52:28;20.90;61.90
42135;DHT22;28312;43.460;11.810;2023-04-01T10:06:15;22.40;58.00
42135;DHT22;28312;43.460;11.810;2023-04-01T10:10:56;22.30;58.20
42135;DHT22;28312;43.460;11.810;2023-04-01T10:19:55;22.60;58.10
42135;DHT22;28312;43.460;11.810;2023-04-01T10:56:34;25.40;54.60
42135;DHT22;28312;43.460;11.810;2023-04-01T11:06:24;22.70;55.50
42135;DHT22;28312;43.460;11.810;2023-04-01T11:27:47;24.90;55.20
42135;DHT22;28312;43.460;11.810;2023-04-01T11:45:46;24.40;54.60
42135;DHT22;28312;43.460;11.810;2023-04-01T11:50:17;23.70;53.50
42135;DHT22;28312;43.460;11.810;2023-04-01T12:08:16;21.80;54.90
42135;DHT22;28312;43.460;11.810;2023-04-01T12:21:23;21.50;55.90
42135;DHT22;28312;43.460;11.810;2023-04-01T12:30:02;21.20;53.70
42135;DHT22;28312;43.460;11.810;2023-04-01T12:48:02;21.00;55.30
42135;DHT22;28312;43.460;11.810;2023-04-01T12:56:28;22.40;54.80
42135;DHT22;28312;43.460;11.810;2023-04-01T13:00:41;22.90;53.30
42135;DHT22;28312;43.460;11.810;2023-04-01T13:05:01;23.10;52.40
42135;DHT22;28312;43.460;11.810;2023-04-01T13:18:48;22.80;50.50
42135;DHT22;28312;43.460;11.810;2023-04-01T13:23:04;23.00;49.90
42135;DHT22;28312;43.460;11.810;2023-04-01T13:27:30;23.10;48.90
42135;DHT22;28312;43.460;11.810;2023-04-01T13:45:21;22.80;45.60
42135;DHT22;28312;43.460;11.810;2023-04-01T14:03:09;22.90;43.10
42135;DHT22;28312;43.460;11.810;2023-04-01T14:12:06;23.00;43.30
42135;DHT22;28312;43.460;11.810;2023-04-01T14:20:41;23.20;42.20
42135;DHT22;28312;43.460;11.810;2023-04-01T14:29:21;23.20;41.10
42135;DHT22;28312;43.460;11.810;2023-04-01T14:38:26;22.90;41.10
42135;DHT22;28312;43.460;11.810;2023-04-01T14:47:08;22.70;40.20
42135;DHT22;28312;43.460;11.810;2023-04-01T14:51:40;22.50;39.70
42135;DHT22;28312;43.460;11.810;2023-04-01T15:22:32;21.70;40.00
42135;DHT22;28312;43.460;11.810;2023-04-01T15:27:00;21.60;39.90
42135;DHT22;28312;43.460;11.810;2023-04-01T15:31:26;21.60;39.80
42135;DHT22;28312;43.460;11.810;2023-04-01T15:35:59;21.60;40.10
42135;DHT22;28312;43.460;11.810;2023-04-01T15:40:54;21.70;40.40
42135;DHT22;28312;43.460;11.810;2023-04-01T16:02:42;20.70;40.00
42135;DHT22;28312;43.460;11.810;2023-04-01T16:11:04;20.20;40.80
42135;DHT22;28312;43.460;11.810;2023-04-01T16:15:44;20.10;41.10
42135;DHT22;28312;43.460;11.810;2023-04-01T16:20:49;20.10;41.20
42135;DHT22;28312;43.460;11.810;2023-04-01T16:42:26;18.70;42.90
42135;DHT22;28312;43.460;11.810;2023-04-01T16:46:52;18.40;43.50
42135;DHT22;28312;43.460;11.810;2023-04-01T16:51:04;18.20;44.00
42135;DHT22;28312;43.460;11.810;2023-04-01T16:55:17;18.00;44.50
42135;DHT22;28312;43.460;11.810;2023-04-01T16:59:36;17.80;44.80
42135;DHT22;28312;43.460;11.810;2023-04-01T17:03:45;17.60;45.10
42135;DHT22;28312;43.460;11.810;2023-04-01T17:08:06;17.40;45.30
42135;DHT22;28312;43.460;11.810;2023-04-01T17:12:28;17.10;45.80
42135;DHT22;28312;43.460;11.810;2023-04-01T17:16:54;16.90;46.10
42135;DHT22;28312;43.460;11.810;2023-04-01T17:25:34;16.60;46.20
42135;DHT22;28312;43.460;11.810;2023-04-01T17:30:03;16.30;46.20
42135;DHT22;28312;43.460;11.810;2023-04-01T18:05:34;14.70;47.60
42135;DHT22;28312;43.460;11.810;2023-04-01T18:14:22;14.50;47.80
42135;DHT22;28312;43.460;11.810;2023-04-01T18:27:40;14.10;47.80
42135;DHT22;28312;43.460;11.810;2023-04-01T18:31:49;13.90;48.00
42135;DHT22;28312;43.460;11.810;2023-04-01T18:36:18;13.70;48.10
42135;DHT22;28312;43.460;11.810;2023-04-01T18:53:42;13.30;48.60
42135;DHT22;28312;43.460;11.810;2023-04-01T18:57:55;13.20;48.70
42135;DHT22;28312;43.460;11.810;2023-04-01T19:02:29;13.10;48.70
42135;DHT22;28312;43.460;11.810;2023-04-01T19:06:35;12.90;48.70
42135;DHT22;28312;43.460;11.810;2023-04-01T19:33:03;11.80;49.60
42135;DHT22;28312;43.460;11.810;2023-04-01T19:41:53;11.40;50.00
42135;DHT22;28312;43.460;11.810;2023-04-01T19:50:42;11.20;50.50
42135;DHT22;28312;43.460;11.810;2023-04-01T19:54:59;11.10;50.40
42135;DHT22;28312;43.460;11.810;2023-04-01T19:59:19;10.90;50.60
42135;DHT22;28312;43.460;11.810;2023-04-01T20:03:49;10.80;50.80
42135;DHT22;28312;43.460;11.810;2023-04-01T20:08:33;10.80;50.80
42135;DHT22;28312;43.460;11.810;2023-04-01T20:17:07;10.70;51.10
42135;DHT22;28312;43.460;11.810;2023-04-01T20:21:23;10.60;51.20
42135;DHT22;28312;43.460;11.810;2023-04-01T20:25:48;10.50;51.10
42135;DHT22;28312;43.460;11.810;2023-04-01T20:39:40;9.80;51.50
42135;DHT22;28312;43.460;11.810;2023-04-01T20:44:08;9.70;51.80
42135;DHT22;28312;43.460;11.810;2023-04-01T20:57:20;10.00;52.60
42135;DHT22;28312;43.460;11.810;2023-04-01T21:01:46;10.10;52.60
42135;DHT22;28312;43.460;11.810;2023-04-01T21:06:29;10.20;52.80
42135;DHT22;28312;43.460;11.810;2023-04-01T21:10:51;10.20;52.90
42135;DHT22;28312;43.460;11.810;2023-04-01T21:36:40;9.50;52.90
42135;DHT22;28312;43.460;11.810;2023-04-01T21:58:23;8.80;53.50
42135;DHT22;28312;43.460;11.810;2023-04-01T22:03:05;8.80;53.80
42135;DHT22;28312;43.460;11.810;2023-04-01T22:07:41;8.80;53.80
42135;DHT22;28312;43.460;11.810;2023-04-01T22:11:48;8.80;53.90
42135;DHT22;28312;43.460;11.810;2023-04-01T22:47:04;8.40;55.10
42135;DHT22;28312;43.460;11.810;2023-04-01T22:51:41;8.30;55.10
42135;DHT22;28312;43.460;11.810;2023-04-01T22:55:50;8.30;55.10
42135;DHT22;28312;43.460;11.810;2023-04-01T23:00:00;8.30;55.00
42135;DHT22;28312;43.460;11.810;2023-04-01T23:04:09;8.30;54.90
42135;DHT22;28312;43.460;11.810;2023-04-01T23:12:44;8.20;55.20
42135;DHT22;28312;43.460;11.810;2023-04-01T23:21:40;7.90;55.40
42135;DHT22;28312;43.460;11.810;2023-04-01T23:34:49;7.70;55.30
42135;DHT22;28312;43.460;11.810;2023-04-01T23:38:54;7.70;55.30
42135;DHT22;28312;43.460;11.810;2023-04-01T23:42:57;7.60;55.20
42135;DHT22;28312;43.460;11.810;2023-04-01T23:47:01;7.50;55.30
42135;DHT22;28312;43.460;11.810;2023-04-01T23:55:29;7.20;55.70
42135;DHT22;28312;43.460;11.810;2023-04-01T23:59:36;7.20;55.90
